sensor_id;sensor_type;location;lat;lon;timestamp;pressure;altitude;pressure_sealevel;temperature;humidity
77011;BME280;65945;53.148;17.956;2023-04-25T00:01:41;99846.21;;;11.07;82.07
77011;BME280;65945;53.148;17.956;2023-04-25T00:04:08;99844.36;;;11.04;82.32
77011;BME280;65945;53.148;17.956;2023-04-25T00:06:35;99845.32;;;11.02;82.53
77011;BME280;65945;53.148;17.956;2023-04-25T00:09:03;99843.94;;;10.99;82.61
77011;BME280;65945;53.148;17.956;2023-04-25T00:11:33;99838.17;;;10.95;82.53
77011;BME280;65945;53.148;17.956;2023-04-25T00:14:00;99838.08;;;10.92;82.39
77011;BME280;65945;53.148;17.956;2023-04-25T00:16:29;99842.34;;;10.89;82.43
77011;BME280;65945;53.148;17.956;2023-04-25T00:19:00;99840.77;;;10.85;82.25
77011;BME280;65945;53.148;17.956;2023-04-25T00:21:28;99837.85;;;10.82;82.27
77011;BME280;65945;53.148;17.956;2023-04-25T00:23:55;99840.20;;;10.79;82.05
77011;BME280;65945;53.148;17.956;2023-04-25T00:26:22;99838.48;;;10.75;81.96
77011;BME280;65945;53.148;17.956;2023-04-25T00:28:48;99845.64;;;10.71;81.70
77011;BME280;65945;53.148;17.956;2023-04-25T00:31:15;99844.99;;;10.67;81.58
77011;BME280;65945;53.148;17.956;2023-04-25T00:33:42;99847.10;;;10.63;81.33
77011;BME280;65945;53.148;17.956;2023-04-25T00:36:08;99851.41;;;10.58;81.34
77011;BME280;65945;53.148;17.956;2023-04-25T00:38:36;99853.89;;;10.53;81.16
77011;BME280;65945;53.148;17.956;2023-04-25T00:41:07;99857.98;;;10.50;81.25
77011;BME280;65945;53.148;17.956;2023-04-25T00:43:36;99859.02;;;10.45;80.84
77011;BME280;65945;53.148;17.956;2023-04-25T00:46:03;99861.79;;;10.41;80.09
77011;BME280;65945;53.148;17.956;2023-04-25T00:48:30;99861.36;;;10.36;80.05
77011;BME280;65945;53.148;17.956;2023-04-25T00:50:58;99867.66;;;10.32;79.87
77011;BME280;65945;53.148;17.956;2023-04-25T00:53:27;99868.90;;;10.26;79.38
77011;BME280;65945;53.148;17.956;2023-04-25T00:55:54;99871.81;;;10.20;79.41
77011;BME280;65945;53.148;17.956;2023-04-25T00:58:22;99869.08;;;10.14;79.33
77011;BME280;65945;53.148;17.956;2023-04-25T01:00:50;99875.73;;;10.09;78.83
77011;BME280;65945;53.148;17.956;2023-04-25T01:03:18;99876.27;;;10.03;78.97
77011;BME280;65945;53.148;17.956;2023-04-25T01:05:48;99873.68;;;9.98;79.06
77011;BME280;65945;53.148;17.956;2023-04-25T01:08:15;99873.95;;;9.94;79.43
77011;BME280;65945;53.148;17.956;2023-04-25T01:10:41;99872.60;;;9.91;79.20
77011;BME280;65945;53.148;17.956;2023-04-25T01:13:08;99872.40;;;9.86;78.88
77011;BME280;65945;53.148;17.956;2023-04-25T01:15:35;99866.72;;;9.84;79.27
77011;BME280;65945;53.148;17.956;2023-04-25T01:18:03;99868.98;;;9.81;78.95
77011;BME280;65945;53.148;17.956;2023-04-25T01:20:31;99866.27;;;9.79;78.95
77011;BME280;65945;53.148;17.956;2023-04-25T01:22:59;99869.29;;;9.76;78.73
77011;BME280;65945;53.148;17.956;2023-04-25T01:25:26;99868.58;;;9.74;78.77
77011;BME280;65945;53.148;17.956;2023-04-25T01:27:53;99870.98;;;9.71;78.62
77011;BME280;65945;53.148;17.956;2023-04-25T01:30:19;99872.92;;;9.68;78.71
77011;BME280;65945;53.148;17.956;2023-04-25T01:32:47;99874.86;;;9.65;78.35
77011;BME280;65945;53.148;17.956;2023-04-25T01:35:14;99878.48;;;9.60;78.16
77011;BME280;65945;53.148;17.956;2023-04-25T01:37:42;99876.30;;;9.57;78.25
77011;BME280;65945;53.148;17.956;2023-04-25T01:40:12;99875.19;;;9.53;78.02
77011;BME280;65945;53.148;17.956;2023-04-25T01:42:41;99874.06;;;9.50;78.14
77011;BME280;65945;53.148;17.956;2023-04-25T01:45:09;99876.48;;;9.47;78.46
77011;BME280;65945;53.148;17.956;2023-04-25T01:47:38;99881.39;;;9.44;78.52
77011;BME280;65945;53.148;17.956;2023-04-25T01:50:07;99881.35;;;9.41;78.73
77011;BME280;65945;53.148;17.956;2023-04-25T01:52:35;99882.52;;;9.38;78.62
77011;BME280;65945;53.148;17.956;2023-04-25T01:55:02;99886.89;;;9.34;79.04
77011;BME280;65945;53.148;17.956;2023-04-25T01:57:31;99886.70;;;9.32;79.30
77011;BME280;65945;53.148;17.956;2023-04-25T02:00:00;99892.62;;;9.29;79.48
77011;BME280;65945;53.148;17.956;2023-04-25T02:02:40;99891.73;;;9.26;79.43
77011;BME280;65945;53.148;17.956;2023-04-25T02:05:15;99890.51;;;9.21;79.73
77011;BME280;65945;53.148;17.956;2023-04-25T02:07:43;99890.37;;;9.16;79.81
77011;BME280;65945;53.148;17.956;2023-04-25T02:10:09;99892.52;;;9.12;80.00
77011;BME280;65945;53.148;17.956;2023-04-25T02:12:42;99894.14;;;9.09;79.82
77011;BME280;65945;53.148;17.956;2023-04-25T02:15:24;99900.05;;;9.06;80.13
77011;BME280;65945;53.148;17.956;2023-04-25T02:17:55;99901.43;;;9.03;80.13
77011;BME280;65945;53.148;17.956;2023-04-25T02:20:22;99902.98;;;9.00;80.06
77011;BME280;65945;53.148;17.956;2023-04-25T02:22:50;99901.94;;;8.97;80.31
77011;BME280;65945;53.148;17.956;2023-04-25T02:25:18;99903.94;;;8.93;80.36
77011;BME280;65945;53.148;17.956;2023-04-25T02:27:47;99902.96;;;8.89;80.23
77011;BME280;65945;53.148;17.956;2023-04-25T02:30:14;99906.58;;;8.87;80.44
77011;BME280;65945;53.148;17.956;2023-04-25T02:32:41;99899.98;;;8.83;80.55
77011;BME280;65945;53.148;17.956;2023-04-25T02:35:09;99905.70;;;8.80;80.33
77011;BME280;65945;53.148;17.956;2023-04-25T02:37:38;99907.55;;;8.76;80.41
77011;BME280;65945;53.148;17.956;2023-04-25T02:40:05;99912.21;;;8.72;80.45
77011;BME280;65945;53.148;17.956;2023-04-25T02:42:32;99913.17;;;8.67;80.17
77011;BME280;65945;53.148;17.956;2023-04-25T02:44:59;99911.88;;;8.62;80.25
77011;BME280;65945;53.148;17.956;2023-04-25T02:47:26;99912.71;;;8.58;80.15
77011;BME280;65945;53.148;17.956;2023-04-25T02:49:53;99914.05;;;8.55;80.17
77011;BME280;65945;53.148;17.956;2023-04-25T02:52:20;99913.25;;;8.53;80.48
77011;BME280;65945;53.148;17.956;2023-04-25T02:54:52;99915.23;;;8.50;80.41
77011;BME280;65945;53.148;17.956;2023-04-25T02:57:19;99912.59;;;8.46;80.24
77011;BME280;65945;53.148;17.956;2023-04-25T02:59:45;99914.64;;;8.42;80.12
77011;BME280;65945;53.148;17.956;2023-04-25T03:02:12;99919.20;;;8.38;80.39
77011;BME280;65945;53.148;17.956;2023-04-25T03:04:39;99918.64;;;8.32;80.54
77011;BME280;65945;53.148;17.956;2023-04-25T03:07:06;99919.90;;;8.26;80.28
77011;BME280;65945;53.148;17.956;2023-04-25T03:09:33;99920.79;;;8.22;80.11
77011;BME280;65945;53.148;17.956;2023-04-25T03:12:00;99918.27;;;8.18;79.99
77011;BME280;65945;53.148;17.956;2023-04-25T03:14:28;99918.16;;;8.13;80.36
77011;BME280;65945;53.148;17.956;2023-04-25T03:16:54;99917.92;;;8.08;80.24
77011;BME280;65945;53.148;17.956;2023-04-25T03:19:21;99917.58;;;8.03;80.28
77011;BME280;65945;53.148;17.956;2023-04-25T03:21:48;99918.29;;;7.97;80.36
77011;BME280;65945;53.148;17.956;2023-04-25T03:24:15;99918.33;;;7.91;80.48
77011;BME280;65945;53.148;17.956;2023-04-25T03:26:41;99921.05;;;7.86;80.35
77011;BME280;65945;53.148;17.956;2023-04-25T03:29:08;99918.96;;;7.80;80.20
77011;BME280;65945;53.148;17.956;2023-04-25T03:31:35;99920.77;;;7.76;80.22
77011;BME280;65945;53.148;17.956;2023-04-25T03:34:02;99921.92;;;7.73;80.25
77011;BME280;65945;53.148;17.956;2023-04-25T03:36:29;99922.40;;;7.68;80.09
77011;BME280;65945;53.148;17.956;2023-04-25T03:38:55;99923.77;;;7.63;80.06
77011;BME280;65945;53.148;17.956;2023-04-25T03:41:22;99927.33;;;7.59;80.15
77011;BME280;65945;53.148;17.956;2023-04-25T03:43:53;99926.48;;;7.56;80.28
77011;BME280;65945;53.148;17.956;2023-04-25T03:46:20;99927.33;;;7.52;80.39
77011;BME280;65945;53.148;17.956;2023-04-25T03:48:47;99930.83;;;7.50;80.22
77011;BME280;65945;53.148;17.956;2023-04-25T03:51:19;99934.30;;;7.48;80.34
77011;BME280;65945;53.148;17.956;2023-04-25T03:53:47;99937.69;;;7.47;80.38
77011;BME280;65945;53.148;17.956;2023-04-25T03:56:20;99941.73;;;7.45;80.54
77011;BME280;65945;53.148;17.956;2023-04-25T03:58:50;99942.44;;;7.42;80.47
77011;BME280;65945;53.148;17.956;2023-04-25T04:01:17;99950.16;;;7.40;80.51
77011;BME280;65945;53.148;17.956;2023-04-25T04:03:44;99954.33;;;7.40;80.30
77011;BME280;65945;53.148;17.956;2023-04-25T04:06:10;99955.63;;;7.40;80.09
77011;BME280;65945;53.148;17.956;2023-04-25T04:08:40;99957.17;;;7.41;80.40
77011;BME280;65945;53.148;17.956;2023-04-25T04:11:07;99958.30;;;7.40;80.20
77011;BME280;65945;53.148;17.956;2023-04-25T04:13:34;99958.99;;;7.37;80.07
77011;BME280;65945;53.148;17.956;2023-04-25T04:16:02;99959.86;;;7.36;80.16
77011;BME280;65945;53.148;17.956;2023-04-25T04:18:30;99964.02;;;7.35;80.30
77011;BME280;65945;53.148;17.956;2023-04-25T04:20:57;99966.27;;;7.34;80.19
77011;BME280;65945;53.148;17.956;2023-04-25T04:23:25;99969.69;;;7.33;80.29
77011;BME280;65945;53.148;17.956;2023-04-25T04:25:54;99972.45;;;7.34;80.50
77011;BME280;65945;53.148;17.956;2023-04-25T04:28:27;99973.91;;;7.35;80.20
77011;BME280;65945;53.148;17.956;2023-04-25T04:31:21;99974.21;;;7.35;80.17
77011;BME280;65945;53.148;17.956;2023-04-25T04:33:48;99976.17;;;7.35;80.00
77011;BME280;65945;53.148;17.956;2023-04-25T04:36:15;99981.64;;;7.35;79.87
77011;BME280;65945;53.148;17.956;2023-04-25T04:38:42;99983.98;;;7.37;80.01
77011;BME280;65945;53.148;17.956;2023-04-25T04:41:16;99986.05;;;7.38;79.91
77011;BME280;65945;53.148;17.956;2023-04-25T04:43:54;99984.41;;;7.40;79.81
77011;BME280;65945;53.148;17.956;2023-04-25T04:46:34;99986.59;;;7.41;79.86
77011;BME280;65945;53.148;17.956;2023-04-25T04:49:30;99986.71;;;7.44;79.36
77011;BME280;65945;53.148;17.956;2023-04-25T04:52:19;99982.41;;;7.44;79.47
77011;BME280;65945;53.148;17.956;2023-04-25T04:54:56;99986.77;;;7.49;79.45
77011;BME280;65945;53.148;17.956;2023-04-25T04:57:34;99985.34;;;7.50;78.91
77011;BME280;65945;53.148;17.956;2023-04-25T05:00:21;99988.17;;;7.50;78.96
77011;BME280;65945;53.148;17.956;2023-04-25T05:03:07;99989.55;;;7.51;78.47
77011;BME280;65945;53.148;17.956;2023-04-25T05:05:42;99991.07;;;7.51;78.77
77011;BME280;65945;53.148;17.956;2023-04-25T05:08:28;99992.63;;;7.53;78.56
77011;BME280;65945;53.148;17.956;2023-04-25T05:11:24;99990.06;;;7.53;78.40
77011;BME280;65945;53.148;17.956;2023-04-25T05:14:17;99988.31;;;7.53;78.18
77011;BME280;65945;53.148;17.956;2023-04-25T05:16:49;99990.85;;;7.54;78.36
77011;BME280;65945;53.148;17.956;2023-04-25T05:19:39;99993.95;;;7.57;78.52
77011;BME280;65945;53.148;17.956;2023-04-25T05:22:24;99996.83;;;7.60;78.43
77011;BME280;65945;53.148;17.956;2023-04-25T05:25:20;99997.52;;;7.63;78.21
77011;BME280;65945;53.148;17.956;2023-04-25T05:28:12;99998.20;;;7.67;77.88
77011;BME280;65945;53.148;17.956;2023-04-25T05:30:57;99996.15;;;7.73;77.98
77011;BME280;65945;53.148;17.956;2023-04-25T05:33:38;99997.09;;;7.77;77.50
77011;BME280;65945;53.148;17.956;2023-04-25T05:36:05;100004.08;;;7.81;77.67
77011;BME280;65945;53.148;17.956;2023-04-25T05:38:33;100006.13;;;7.84;77.42
77011;BME280;65945;53.148;17.956;2023-04-25T05:41:14;100006.82;;;7.88;76.72
77011;BME280;65945;53.148;17.956;2023-04-25T05:44:01;100004.80;;;7.93;77.11
77011;BME280;65945;53.148;17.956;2023-04-25T05:46:49;100008.29;;;8.00;76.67
77011;BME280;65945;53.148;17.956;2023-04-25T05:49:31;100005.80;;;8.04;76.07
77011;BME280;65945;53.148;17.956;2023-04-25T05:52:16;100005.69;;;8.02;76.43
77011;BME280;65945;53.148;17.956;2023-04-25T05:54:47;100007.22;;;8.03;76.36
77011;BME280;65945;53.148;17.956;2023-04-25T05:57:22;100007.19;;;8.02;76.20
77011;BME280;65945;53.148;17.956;2023-04-25T05:59:49;100012.70;;;8.03;76.35
77011;BME280;65945;53.148;17.956;2023-04-25T06:02:17;100013.03;;;8.04;76.30
77011;BME280;65945;53.148;17.956;2023-04-25T06:04:44;100013.35;;;8.05;76.34
77011;BME280;65945;53.148;17.956;2023-04-25T06:07:11;100008.94;;;8.05;76.31
77011;BME280;65945;53.148;17.956;2023-04-25T06:09:38;100012.64;;;8.07;76.03
77011;BME280;65945;53.148;17.956;2023-04-25T06:12:06;100010.14;;;8.08;75.93
77011;BME280;65945;53.148;17.956;2023-04-25T06:14:33;100012.09;;;8.06;75.71
77011;BME280;65945;53.148;17.956;2023-04-25T06:17:00;100010.17;;;8.06;75.61
77011;BME280;65945;53.148;17.956;2023-04-25T06:19:33;100014.63;;;8.08;75.88
77011;BME280;65945;53.148;17.956;2023-04-25T06:21:59;100010.67;;;8.12;75.82
77011;BME280;65945;53.148;17.956;2023-04-25T06:24:27;100016.21;;;8.18;75.51
77011;BME280;65945;53.148;17.956;2023-04-25T06:26:54;100012.41;;;8.24;75.64
77011;BME280;65945;53.148;17.956;2023-04-25T06:29:22;100016.41;;;8.33;75.11
77011;BME280;65945;53.148;17.956;2023-04-25T06:31:48;100016.00;;;8.43;75.20
77011;BME280;65945;53.148;17.956;2023-04-25T06:34:15;100010.92;;;8.56;75.21
77011;BME280;65945;53.148;17.956;2023-04-25T06:36:42;100011.21;;;8.70;74.48
77011;BME280;65945;53.148;17.956;2023-04-25T06:39:11;100013.73;;;8.83;74.26
77011;BME280;65945;53.148;17.956;2023-04-25T06:41:38;100009.34;;;9.02;74.07
77011;BME280;65945;53.148;17.956;2023-04-25T06:44:06;100004.66;;;9.17;73.10
77011;BME280;65945;53.148;17.956;2023-04-25T06:46:39;100002.31;;;9.32;73.32
77011;BME280;65945;53.148;17.956;2023-04-25T06:49:05;99995.13;;;9.51;73.20
77011;BME280;65945;53.148;17.956;2023-04-25T06:51:33;99995.74;;;9.66;72.49
77011;BME280;65945;53.148;17.956;2023-04-25T06:53:59;99991.78;;;9.77;71.63
77011;BME280;65945;53.148;17.956;2023-04-25T06:56:31;99997.05;;;9.83;70.91
77011;BME280;65945;53.148;17.956;2023-04-25T06:59:03;99997.42;;;9.87;70.55
77011;BME280;65945;53.148;17.956;2023-04-25T07:01:35;100001.80;;;10.00;70.54
77011;BME280;65945;53.148;17.956;2023-04-25T07:04:04;99994.15;;;10.15;70.17
77011;BME280;65945;53.148;17.956;2023-04-25T07:06:31;100004.55;;;10.28;69.30
77011;BME280;65945;53.148;17.956;2023-04-25T07:08:58;100001.80;;;10.39;68.94
77011;BME280;65945;53.148;17.956;2023-04-25T07:11:25;99999.92;;;10.49;67.76
77011;BME280;65945;53.148;17.956;2023-04-25T07:13:52;99999.64;;;10.57;68.58
77011;BME280;65945;53.148;17.956;2023-04-25T07:16:18;99998.88;;;10.64;68.73
77011;BME280;65945;53.148;17.956;2023-04-25T07:18:46;99999.54;;;10.69;67.47
77011;BME280;65945;53.148;17.956;2023-04-25T07:21:13;100005.96;;;10.71;67.75
77011;BME280;65945;53.148;17.956;2023-04-25T07:23:40;100012.82;;;10.74;65.93
77011;BME280;65945;53.148;17.956;2023-04-25T07:26:11;100012.41;;;10.80;66.25
77011;BME280;65945;53.148;17.956;2023-04-25T07:28:43;100004.79;;;10.89;66.65
77011;BME280;65945;53.148;17.956;2023-04-25T07:31:10;100006.92;;;10.96;66.13
77011;BME280;65945;53.148;17.956;2023-04-25T07:33:36;100008.06;;;11.03;67.14
77011;BME280;65945;53.148;17.956;2023-04-25T07:36:03;100015.92;;;11.11;65.88
77011;BME280;65945;53.148;17.956;2023-04-25T07:38:30;100017.33;;;11.13;65.33
77011;BME280;65945;53.148;17.956;2023-04-25T07:40:57;100017.15;;;11.18;65.97
77011;BME280;65945;53.148;17.956;2023-04-25T07:43:24;100020.36;;;11.18;64.06
77011;BME280;65945;53.148;17.956;2023-04-25T07:45:56;100024.52;;;11.14;64.30
77011;BME280;65945;53.148;17.956;2023-04-25T07:48:23;100020.04;;;11.08;64.37
77011;BME280;65945;53.148;17.956;2023-04-25T07:50:52;100022.70;;;11.05;64.90
77011;BME280;65945;53.148;17.956;2023-04-25T07:53:18;100023.86;;;11.08;65.44
77011;BME280;65945;53.148;17.956;2023-04-25T07:55:50;100020.30;;;11.13;65.89
77011;BME280;65945;53.148;17.956;2023-04-25T07:58:18;100025.28;;;11.14;65.73
77011;BME280;65945;53.148;17.956;2023-04-25T08:00:49;100025.83;;;11.14;65.93
77011;BME280;65945;53.148;17.956;2023-04-25T08:03:28;100025.44;;;11.07;65.41
77011;BME280;65945;53.148;17.956;2023-04-25T08:05:55;100028.66;;;11.06;66.28
77011;BME280;65945;53.148;17.956;2023-04-25T08:08:22;100029.73;;;11.07;66.04
77011;BME280;65945;53.148;17.956;2023-04-25T08:10:49;100027.67;;;11.06;66.24
77011;BME280;65945;53.148;17.956;2023-04-25T08:13:16;100030.98;;;11.08;66.23
77011;BME280;65945;53.148;17.956;2023-04-25T08:15:42;100033.83;;;11.11;66.11
77011;BME280;65945;53.148;17.956;2023-04-25T08:18:09;100037.96;;;11.11;66.33
77011;BME280;65945;53.148;17.956;2023-04-25T08:20:36;100039.31;;;11.18;66.09
77011;BME280;65945;53.148;17.956;2023-04-25T08:23:04;100036.78;;;11.24;65.89
77011;BME280;65945;53.148;17.956;2023-04-25T08:25:46;100041.61;;;11.34;65.86
77011;BME280;65945;53.148;17.956;2023-04-25T08:28:14;100041.80;;;11.40;65.08
77011;BME280;65945;53.148;17.956;2023-04-25T08:30:41;100043.77;;;11.46;66.21
77011;BME280;65945;53.148;17.956;2023-04-25T08:33:10;100044.26;;;11.58;66.72
77011;BME280;65945;53.148;17.956;2023-04-25T08:35:57;100047.54;;;11.72;65.05
77011;BME280;65945;53.148;17.956;2023-04-25T08:38:24;100051.85;;;11.75;65.52
77011;BME280;65945;53.148;17.956;2023-04-25T08:40:51;100053.88;;;11.79;65.01
77011;BME280;65945;53.148;17.956;2023-04-25T08:43:19;100050.36;;;11.81;64.99
77011;BME280;65945;53.148;17.956;2023-04-25T08:45:46;100052.40;;;11.77;64.69
77011;BME280;65945;53.148;17.956;2023-04-25T08:48:19;100051.69;;;11.66;64.12
77011;BME280;65945;53.148;17.956;2023-04-25T08:50:51;100049.89;;;11.53;64.95
77011;BME280;65945;53.148;17.956;2023-04-25T08:53:26;100048.91;;;11.46;65.13
77011;BME280;65945;53.148;17.956;2023-04-25T08:55:54;100051.23;;;11.41;65.38
77011;BME280;65945;53.148;17.956;2023-04-25T08:58:21;100057.94;;;11.36;64.27
77011;BME280;65945;53.148;17.956;2023-04-25T09:00:50;100053.98;;;11.30;65.02
77011;BME280;65945;53.148;17.956;2023-04-25T09:03:17;100057.13;;;11.34;65.41
77011;BME280;65945;53.148;17.956;2023-04-25T09:05:46;100059.50;;;11.41;65.42
77011;BME280;65945;53.148;17.956;2023-04-25T09:08:15;100060.66;;;11.51;64.32
77011;BME280;65945;53.148;17.956;2023-04-25T09:10:42;100066.02;;;11.60;64.97
77011;BME280;65945;53.148;17.956;2023-04-25T09:15:57;100072.17;;;11.70;63.86
77011;BME280;65945;53.148;17.956;2023-04-25T09:18:36;100072.35;;;11.74;62.81
77011;BME280;65945;53.148;17.956;2023-04-25T09:21:08;100073.97;;;11.75;62.90
77011;BME280;65945;53.148;17.956;2023-04-25T09:23:48;100075.96;;;11.85;62.57
77011;BME280;65945;53.148;17.956;2023-04-25T09:26:16;100072.72;;;11.91;61.94
77011;BME280;65945;53.148;17.956;2023-04-25T09:28:45;100070.81;;;11.92;61.63
77011;BME280;65945;53.148;17.956;2023-04-25T09:31:22;100078.42;;;11.99;61.60
77011;BME280;65945;53.148;17.956;2023-04-25T09:33:58;100067.70;;;12.09;61.42
77011;BME280;65945;53.148;17.956;2023-04-25T09:36:27;100069.10;;;12.27;60.90
77011;BME280;65945;53.148;17.956;2023-04-25T09:39:01;100072.10;;;12.44;60.51
77011;BME280;65945;53.148;17.956;2023-04-25T09:41:37;100072.99;;;12.54;60.58
77011;BME280;65945;53.148;17.956;2023-04-25T09:44:05;100071.80;;;12.64;59.40
77011;BME280;65945;53.148;17.956;2023-04-25T09:46:34;100083.40;;;12.69;58.21
77011;BME280;65945;53.148;17.956;2023-04-25T09:49:07;100080.16;;;12.63;58.32
77011;BME280;65945;53.148;17.956;2023-04-25T09:51:58;100085.86;;;12.55;59.24
77011;BME280;65945;53.148;17.956;2023-04-25T09:54:28;100083.77;;;12.47;59.49
77011;BME280;65945;53.148;17.956;2023-04-25T09:57:24;100088.05;;;12.44;60.25
77011;BME280;65945;53.148;17.956;2023-04-25T09:59:53;100092.42;;;12.46;59.95
77011;BME280;65945;53.148;17.956;2023-04-25T10:02:22;100095.48;;;12.47;59.42
77011;BME280;65945;53.148;17.956;2023-04-25T10:04:55;100089.66;;;12.46;59.98
77011;BME280;65945;53.148;17.956;2023-04-25T10:07:37;100092.30;;;12.52;59.79
77011;BME280;65945;53.148;17.956;2023-04-25T10:10:07;100094.08;;;12.55;58.43
77011;BME280;65945;53.148;17.956;2023-04-25T10:12:34;100097.91;;;12.56;58.81
77011;BME280;65945;53.148;17.956;2023-04-25T10:15:03;100102.96;;;12.53;59.21
77011;BME280;65945;53.148;17.956;2023-04-25T10:17:31;100095.52;;;12.52;58.56
77011;BME280;65945;53.148;17.956;2023-04-25T10:20:01;100097.89;;;12.51;59.79
77011;BME280;65945;53.148;17.956;2023-04-25T10:22:34;100097.59;;;12.53;58.25
77011;BME280;65945;53.148;17.956;2023-04-25T10:25:02;100101.11;;;12.52;57.98
77011;BME280;65945;53.148;17.956;2023-04-25T10:27:34;100100.77;;;12.58;57.59
77011;BME280;65945;53.148;17.956;2023-04-25T10:32:31;100102.67;;;12.59;57.94
77011;BME280;65945;53.148;17.956;2023-04-25T10:35:18;100103.55;;;12.63;57.58
77011;BME280;65945;53.148;17.956;2023-04-25T10:40:26;100112.17;;;12.72;57.76
77011;BME280;65945;53.148;17.956;2023-04-25T10:42:53;100109.63;;;12.72;57.57
77011;BME280;65945;53.148;17.956;2023-04-25T10:45:23;100110.70;;;12.70;56.88
77011;BME280;65945;53.148;17.956;2023-04-25T10:47:49;100107.54;;;12.63;57.93
77011;BME280;65945;53.148;17.956;2023-04-25T10:50:16;100109.28;;;12.61;57.82
77011;BME280;65945;53.148;17.956;2023-04-25T10:52:44;100108.51;;;12.61;59.00
77011;BME280;65945;53.148;17.956;2023-04-25T10:55:10;100110.52;;;12.62;58.43
77011;BME280;65945;53.148;17.956;2023-04-25T10:57:41;100110.20;;;12.59;58.64
77011;BME280;65945;53.148;17.956;2023-04-25T11:05:19;100109.05;;;12.46;57.73
77011;BME280;65945;53.148;17.956;2023-04-25T11:07:52;100108.48;;;12.40;57.95
77011;BME280;65945;53.148;17.956;2023-04-25T11:10:25;100105.73;;;12.41;57.52
77011;BME280;65945;53.148;17.956;2023-04-25T11:12:52;100108.34;;;12.43;57.97
77011;BME280;65945;53.148;17.956;2023-04-25T11:15:18;100106.52;;;12.44;57.85
77011;BME280;65945;53.148;17.956;2023-04-25T11:17:45;100112.60;;;12.50;58.27
77011;BME280;65945;53.148;17.956;2023-04-25T11:20:13;100115.38;;;12.52;57.34
77011;BME280;65945;53.148;17.956;2023-04-25T11:22:44;100119.52;;;12.40;58.12
77011;BME280;65945;53.148;17.956;2023-04-25T11:25:12;100122.31;;;12.33;58.52
77011;BME280;65945;53.148;17.956;2023-04-25T11:27:49;100122.72;;;12.25;58.44
77011;BME280;65945;53.148;17.956;2023-04-25T11:30:18;100123.27;;;12.16;58.14
77011;BME280;65945;53.148;17.956;2023-04-25T11:32:45;100123.02;;;12.11;58.56
77011;BME280;65945;53.148;17.956;2023-04-25T11:35:13;100124.02;;;12.12;58.35
77011;BME280;65945;53.148;17.956;2023-04-25T11:37:40;100119.75;;;12.14;58.81
77011;BME280;65945;53.148;17.956;2023-04-25T11:40:08;100120.09;;;12.19;58.18
77011;BME280;65945;53.148;17.956;2023-04-25T11:42:41;100124.08;;;12.22;57.99
77011;BME280;65945;53.148;17.956;2023-04-25T11:45:09;100122.73;;;12.26;58.71
77011;BME280;65945;53.148;17.956;2023-04-25T11:47:37;100121.94;;;12.36;57.78
77011;BME280;65945;53.148;17.956;2023-04-25T11:50:06;100121.66;;;12.39;57.62
77011;BME280;65945;53.148;17.956;2023-04-25T11:52:37;100126.66;;;12.41;57.63
77011;BME280;65945;53.148;17.956;2023-04-25T11:55:09;100124.13;;;12.44;57.38
77011;BME280;65945;53.148;17.956;2023-04-25T11:57:41;100123.55;;;12.48;57.49
77011;BME280;65945;53.148;17.956;2023-04-25T12:00:13;100130.05;;;12.59;57.86
77011;BME280;65945;53.148;17.956;2023-04-25T12:02:41;100131.51;;;12.76;56.41
77011;BME280;65945;53.148;17.956;2023-04-25T12:05:09;100132.80;;;12.90;56.38
77011;BME280;65945;53.148;17.956;2023-04-25T12:07:36;100131.54;;;12.99;55.17
77011;BME280;65945;53.148;17.956;2023-04-25T12:10:08;100126.83;;;13.07;55.38
77011;BME280;65945;53.148;17.956;2023-04-25T12:12:35;100128.70;;;13.15;55.24
77011;BME280;65945;53.148;17.956;2023-04-25T12:15:16;100133.02;;;13.19;54.93
77011;BME280;65945;53.148;17.956;2023-04-25T12:17:47;100129.95;;;13.23;54.73
77011;BME280;65945;53.148;17.956;2023-04-25T12:20:18;100135.09;;;13.24;54.69
77011;BME280;65945;53.148;17.956;2023-04-25T12:22:47;100131.88;;;13.33;55.90
77011;BME280;65945;53.148;17.956;2023-04-25T12:28:12;100132.25;;;13.77;54.91
77011;BME280;65945;53.148;17.956;2023-04-25T12:30:55;100128.03;;;13.90;53.55
77011;BME280;65945;53.148;17.956;2023-04-25T12:33:23;100136.77;;;13.88;53.17
77011;BME280;65945;53.148;17.956;2023-04-25T12:35:49;100133.64;;;13.83;53.86
77011;BME280;65945;53.148;17.956;2023-04-25T12:38:27;100133.86;;;13.80;53.35
77011;BME280;65945;53.148;17.956;2023-04-25T12:40:57;100132.02;;;13.74;53.15
77011;BME280;65945;53.148;17.956;2023-04-25T12:43:24;100137.77;;;13.67;52.74
77011;BME280;65945;53.148;17.956;2023-04-25T12:45:55;100139.23;;;13.66;52.92
77011;BME280;65945;53.148;17.956;2023-04-25T12:48:23;100139.32;;;13.72;53.39
77011;BME280;65945;53.148;17.956;2023-04-25T12:50:50;100133.86;;;13.86;52.54
77011;BME280;65945;53.148;17.956;2023-04-25T12:53:19;100130.63;;;13.87;52.38
77011;BME280;65945;53.148;17.956;2023-04-25T12:55:46;100131.88;;;13.84;52.54
77011;BME280;65945;53.148;17.956;2023-04-25T12:58:17;100130.86;;;13.78;51.89
77011;BME280;65945;53.148;17.956;2023-04-25T13:00:45;100132.63;;;13.71;52.80
77011;BME280;65945;53.148;17.956;2023-04-25T13:03:12;100129.71;;;13.66;52.88
77011;BME280;65945;53.148;17.956;2023-04-25T13:05:39;100129.40;;;13.57;53.25
77011;BME280;65945;53.148;17.956;2023-04-25T13:08:06;100132.05;;;13.42;52.92
77011;BME280;65945;53.148;17.956;2023-04-25T13:10:32;100134.46;;;13.20;53.31
77011;BME280;65945;53.148;17.956;2023-04-25T13:13:00;100134.09;;;13.03;54.13
77011;BME280;65945;53.148;17.956;2023-04-25T13:15:27;100132.95;;;12.92;54.52
77011;BME280;65945;53.148;17.956;2023-04-25T13:17:54;100129.02;;;12.82;54.99
77011;BME280;65945;53.148;17.956;2023-04-25T13:20:22;100130.64;;;12.74;55.24
77011;BME280;65945;53.148;17.956;2023-04-25T13:22:48;100131.45;;;12.65;55.04